createdAt,value
2023-05-17T00:06:48.719Z,2.10
2023-05-17T00:16:52.578Z,2.00
2023-05-17T00:26:57.301Z,2.13
2023-05-17T00:37:00.512Z,2.20
2023-05-17T00:47:05.370Z,2.07
2023-05-17T00:57:09.891Z,1.97
2023-05-17T01:07:14.571Z,2.07
2023-05-17T01:17:23.562Z,1.70
2023-05-17T01:27:29.551Z,1.57
2023-05-17T01:37:32.893Z,1.40
2023-05-17T01:47:45.610Z,1.67
2023-05-17T01:57:52.677Z,1.60
2023-05-17T02:07:57.594Z,1.67
2023-05-17T02:18:01.116Z,1.30
2023-05-17T02:28:06.494Z,1.50
2023-05-17T02:38:11.668Z,1.57
2023-05-17T02:48:16.501Z,1.50
2023-05-17T02:58:19.794Z,1.50
2023-05-17T03:08:24.430Z,1.40
2023-05-17T03:18:28.051Z,1.40
2023-05-17T03:28:32.895Z,1.30
2023-05-17T03:38:36.908Z,1.23
2023-05-17T03:48:41.896Z,1.10
2023-05-17T03:58:47.192Z,1.47
2023-05-17T04:08:54.962Z,1.30
2023-05-17T04:19:00.874Z,1.10
2023-05-17T04:29:07.179Z,1.30
2023-05-17T04:39:10.550Z,1.23
2023-05-17T04:49:16.782Z,1.30
2023-05-17T04:59:20.189Z,1.30
2023-05-17T05:09:25.451Z,2.07
2023-05-17T05:19:29.099Z,1.30
2023-05-17T05:29:35.717Z,1.50
2023-05-17T05:39:39.116Z,1.37
2023-05-17T05:49:43.979Z,1.70
2023-05-17T05:59:47.323Z,1.60
2023-05-17T06:09:51.920Z,1.70
2023-05-17T06:19:55.409Z,1.47
2023-05-17T06:30:00.511Z,1.50
2023-05-17T06:40:14.941Z,1.47
2023-05-17T06:50:20.542Z,1.83
2023-05-17T07:00:24.663Z,1.60
2023-05-17T07:10:29.294Z,1.83
2023-05-17T07:20:32.808Z,1.60
2023-05-17T07:30:37.368Z,1.50
2023-05-17T07:40:40.606Z,1.53
2023-05-17T07:50:46.699Z,1.83
2023-05-17T08:00:50.448Z,2.00
2023-05-17T08:10:55.225Z,1.50
2023-05-17T08:20:58.493Z,1.50
2023-05-17T08:31:04.115Z,1.53
2023-05-17T08:41:07.367Z,1.67
2023-05-17T08:51:13.012Z,1.60
2023-05-17T09:01:18.277Z,1.63
2023-05-17T09:11:33.777Z,1.30
2023-05-17T09:21:37.670Z,1.58
2023-05-17T09:31:42.875Z,1.90
2023-05-17T09:41:47.980Z,1.40
2023-05-17T09:51:53.054Z,1.50
2023-05-17T10:01:58.040Z,1.60
2023-05-17T10:12:05.977Z,1.42
2023-05-17T10:22:22.593Z,1.50
2023-05-17T10:32:30.003Z,1.30
2023-05-17T10:42:33.667Z,1.95
2023-05-17T10:52:40.437Z,1.30
2023-05-17T11:02:43.699Z,5.00
2023-05-17T11:12:54.236Z,1.50
2023-05-17T11:22:59.274Z,1.58
2023-05-17T11:33:13.577Z,1.50
2023-05-17T11:43:22.245Z,1.63
2023-05-17T11:53:28.390Z,1.67
2023-05-17T12:03:33.009Z,1.85
2023-05-17T12:13:37.692Z,2.10
2023-05-17T12:23:43.442Z,1.63
2023-05-17T12:33:50.478Z,1.50
2023-05-17T12:44:03.001Z,1.30
2023-05-17T12:54:28.684Z,1.17
2023-05-17T13:04:33.525Z,1.60
2023-05-17T13:14:43.511Z,1.50
2023-05-17T13:24:48.911Z,1.58
2023-05-17T13:34:53.460Z,1.40
2023-05-17T13:44:56.728Z,1.50
2023-05-17T13:55:01.370Z,1.63
2023-05-17T14:05:07.205Z,1.50
2023-05-17T14:15:12.602Z,1.70
2023-05-17T14:25:15.856Z,1.58
2023-05-17T14:35:20.577Z,1.60
2023-05-17T14:45:23.865Z,1.42
2023-05-17T14:55:28.921Z,1.90
2023-05-17T15:05:32.611Z,1.80
2023-05-17T15:15:38.405Z,1.60
2023-05-17T15:25:41.889Z,1.75
2023-05-17T15:35:46.762Z,1.60
2023-05-17T15:45:49.933Z,1.60
2023-05-17T15:55:54.474Z,1.40
2023-05-17T16:05:57.755Z,1.58
2023-05-17T16:16:02.412Z,1.50
2023-05-17T16:26:05.947Z,1.65
2023-05-17T16:36:12.400Z,1.50
2023-05-17T16:46:16.082Z,1.48
2023-05-17T16:56:22.115Z,1.65
2023-05-17T17:06:25.450Z,1.48
2023-05-17T17:16:31.185Z,1.40
2023-05-17T17:26:35.229Z,1.45
2023-05-17T17:36:39.821Z,1.50
2023-05-17T17:46:43.111Z,1.70
2023-05-17T17:56:47.875Z,1.60
2023-05-17T18:06:51.068Z,1.70
2023-05-17T18:16:55.759Z,1.48
2023-05-17T18:26:59.025Z,1.30
2023-05-17T18:37:03.708Z,1.33
2023-05-17T18:47:08.102Z,1.87
2023-05-17T18:57:14.070Z,1.60
2023-05-17T19:07:17.377Z,1.88
2023-05-17T19:17:22.010Z,1.42
2023-05-17T19:27:25.336Z,1.93
2023-05-17T19:37:30.171Z,1.40
2023-05-17T19:47:33.378Z,1.50
2023-05-17T19:57:37.968Z,1.73
2023-05-17T20:07:41.184Z,2.10
2023-05-17T20:17:45.936Z,1.63
2023-05-17T20:27:49.126Z,1.90
2023-05-17T20:37:53.691Z,1.90
2023-05-17T20:47:57.054Z,1.70
2023-05-17T20:58:01.667Z,1.80
2023-05-17T21:08:05.465Z,2.43
2023-05-17T21:18:11.371Z,3.17
2023-05-17T21:28:14.716Z,3.43
2023-05-17T21:38:19.422Z,3.20
2023-05-17T21:48:22.679Z,4.03
2023-05-17T21:58:27.277Z,4.03
2023-05-17T22:08:32.046Z,3.30
2023-05-17T22:18:36.748Z,3.43
2023-05-17T22:28:39.970Z,3.33
2023-05-17T22:38:44.646Z,3.90
2023-05-17T22:48:47.926Z,3.10
2023-05-17T22:58:52.492Z,4.00
2023-05-17T23:08:55.746Z,3.57
2023-05-17T23:19:00.396Z,3.80
2023-05-17T23:29:05.487Z,3.80
2023-05-17T23:39:10.762Z,3.70
2023-05-17T23:49:14.709Z,3.47
2023-05-17T23:59:20.879Z,3.60
